createdAt,value
2019-01-25T00:02:17.229Z,1.85
2019-01-25T00:04:50.929Z,1.88
2019-01-25T00:07:24.309Z,1.83
2019-01-25T00:10:06.895Z,1.95
2019-01-25T00:12:51.497Z,2.01
2019-01-25T00:15:36.842Z,2.10
2019-01-25T00:18:12.856Z,2.12
2019-01-25T00:20:46.306Z,2.12
2019-01-25T00:23:19.499Z,2.12
2019-01-25T00:25:51.821Z,2.14
2019-01-25T00:28:24.585Z,2.16
2019-01-25T00:30:59.137Z,2.14
2019-01-25T00:33:32.353Z,2.22
2019-01-25T00:36:05.528Z,2.24
2019-01-25T00:38:38.951Z,2.18
2019-01-25T00:41:12.143Z,2.15
2019-01-25T00:43:44.357Z,2.14
2019-01-25T00:46:17.689Z,2.17
2019-01-25T00:48:51.199Z,2.06
2019-01-25T00:51:24.505Z,2.02
2019-01-25T00:53:57.221Z,2.06
2019-01-25T00:56:30.393Z,1.99
2019-01-25T00:59:03.523Z,1.80
2019-01-25T01:01:35.725Z,1.76
2019-01-25T01:04:09.395Z,1.80
2019-01-25T01:06:44.183Z,1.73
2019-01-25T01:09:30.417Z,1.71
2019-01-25T01:12:08.697Z,1.71
2019-01-25T01:14:41.855Z,1.74
2019-01-25T01:17:14.217Z,1.74
2019-01-25T01:19:47.334Z,1.78
2019-01-25T01:22:21.219Z,1.74
2019-01-25T01:24:54.309Z,1.72
2019-01-25T01:27:26.721Z,1.81
2019-01-25T01:29:59.809Z,1.80
2019-01-25T01:32:32.038Z,1.83
2019-01-25T01:35:05.310Z,1.87
2019-01-25T01:37:38.256Z,1.78
2019-01-25T01:40:22.041Z,1.81
2019-01-25T01:42:54.751Z,1.86
2019-01-25T01:45:28.247Z,1.82
2019-01-25T01:48:01.683Z,1.79
2019-01-25T01:50:34.391Z,1.84
2019-01-25T01:53:08.301Z,1.81
2019-01-25T01:55:42.719Z,1.75
2019-01-25T01:58:16.206Z,1.76
2019-01-25T02:00:49.771Z,1.82
2019-01-25T02:03:22.997Z,1.80
2019-01-25T02:05:55.178Z,1.80
2019-01-25T02:08:28.593Z,1.76
2019-01-25T02:11:14.576Z,1.77
2019-01-25T02:13:47.775Z,1.83
2019-01-25T02:16:21.012Z,1.85
2019-01-25T02:18:54.519Z,1.94
2019-01-25T02:21:27.609Z,1.90
2019-01-25T02:24:00.163Z,1.99
2019-01-25T02:26:33.074Z,2.01
2019-01-25T02:29:05.819Z,1.96
2019-01-25T02:31:39.134Z,1.92
2019-01-25T02:34:12.844Z,1.87
2019-01-25T02:36:45.956Z,1.80
2019-01-25T02:39:18.224Z,1.85
2019-01-25T02:41:51.753Z,1.82
2019-01-25T02:44:25.029Z,1.81
2019-01-25T02:46:58.369Z,1.92
2019-01-25T02:49:30.559Z,1.99
2019-01-25T02:52:03.536Z,1.98
2019-01-25T02:54:35.814Z,1.96
2019-01-25T02:57:08.677Z,1.96
2019-01-25T02:59:42.283Z,1.95
2019-01-25T03:02:15.521Z,1.96
2019-01-25T03:04:48.786Z,1.97
2019-01-25T03:07:22.262Z,1.99
2019-01-25T03:10:06.411Z,1.95
2019-01-25T03:12:47.110Z,1.89
2019-01-25T03:15:24.988Z,1.88
2019-01-25T03:17:58.140Z,1.91
2019-01-25T03:20:33.059Z,1.88
2019-01-25T03:23:06.751Z,1.93
2019-01-25T03:25:40.317Z,1.89
2019-01-25T03:28:14.073Z,1.94
2019-01-25T03:30:47.368Z,1.93
2019-01-25T03:33:20.573Z,1.98
2019-01-25T03:35:53.822Z,2.04
2019-01-25T03:38:26.937Z,2.07
2019-01-25T03:41:01.091Z,2.10
2019-01-25T03:43:34.573Z,2.18
2019-01-25T03:46:08.776Z,2.19
2019-01-25T03:48:42.019Z,2.14
2019-01-25T03:51:15.271Z,2.18
2019-01-25T03:53:47.935Z,2.19
2019-01-25T03:56:20.863Z,2.19
2019-01-25T03:58:54.191Z,2.04
2019-01-25T04:01:27.893Z,1.94
2019-01-25T04:04:01.933Z,1.82
2019-01-25T04:06:35.933Z,1.82
2019-01-25T04:09:11.172Z,1.79
2019-01-25T04:11:57.164Z,1.80
2019-01-25T04:14:43.337Z,1.81
2019-01-25T04:17:17.369Z,1.82
2019-01-25T04:19:50.481Z,1.90
2019-01-25T04:22:22.886Z,1.94
2019-01-25T04:24:55.864Z,1.99
2019-01-25T04:27:27.909Z,1.89
2019-01-25T04:30:01.211Z,1.98
2019-01-25T04:32:34.556Z,2.01
2019-01-25T04:35:09.292Z,2.08
2019-01-25T04:37:42.560Z,2.12
2019-01-25T04:40:16.573Z,2.10
2019-01-25T04:42:50.075Z,2.11
2019-01-25T04:45:23.396Z,2.16
2019-01-25T04:47:57.273Z,2.09
2019-01-25T04:50:31.101Z,2.16
2019-01-25T04:53:04.625Z,2.13
2019-01-25T04:55:37.865Z,2.09
2019-01-25T04:58:22.411Z,2.03
2019-01-25T05:00:55.591Z,2.00
2019-01-25T05:03:28.105Z,1.99
2019-01-25T05:06:01.147Z,1.99
2019-01-25T05:08:33.289Z,1.91
2019-01-25T05:11:19.850Z,1.92
2019-01-25T05:13:51.475Z,1.92
2019-01-25T05:16:23.387Z,1.96
2019-01-25T05:18:56.921Z,1.99
2019-01-25T05:21:29.985Z,1.74
2019-01-25T05:24:10.630Z,1.87
2019-01-25T05:26:43.857Z,1.93
2019-01-25T05:29:21.757Z,2.03
2019-01-25T05:31:58.708Z,1.94
2019-01-25T05:34:32.114Z,2.08
2019-01-25T05:37:08.488Z,2.07
2019-01-25T05:39:42.069Z,2.11
2019-01-25T05:42:16.671Z,2.20
2019-01-25T05:44:50.416Z,2.26
2019-01-25T05:47:23.856Z,2.16
2019-01-25T05:49:57.695Z,2.28
2019-01-25T05:52:30.854Z,2.17
2019-01-25T05:55:06.296Z,2.24
2019-01-25T05:57:42.608Z,2.24
2019-01-25T06:00:16.679Z,2.07
2019-01-25T06:02:50.417Z,2.13
2019-01-25T06:05:24.028Z,2.18
2019-01-25T06:07:57.941Z,2.01
2019-01-25T06:10:43.950Z,1.92
2019-01-25T06:13:27.924Z,1.99
2019-01-25T06:16:10.322Z,2.01
2019-01-25T06:18:43.603Z,2.00
2019-01-25T06:21:18.343Z,1.97
2019-01-25T06:23:54.293Z,1.95
2019-01-25T06:26:28.007Z,1.92
2019-01-25T06:29:01.181Z,1.92
2019-01-25T06:31:33.356Z,1.90
2019-01-25T06:34:09.933Z,1.98
2019-01-25T06:36:42.933Z,2.02
2019-01-25T06:39:16.475Z,2.15
2019-01-25T06:41:52.258Z,2.10
2019-01-25T06:44:27.252Z,2.05
2019-01-25T06:47:00.928Z,2.06
2019-01-25T06:49:36.704Z,1.94
2019-01-25T06:52:10.449Z,2.04
2019-01-25T06:54:44.214Z,2.11
2019-01-25T06:57:32.326Z,2.23
2019-01-25T07:00:06.962Z,2.14
2019-01-25T07:02:41.692Z,2.10
2019-01-25T07:05:14.703Z,2.21
2019-01-25T07:07:49.325Z,2.23
2019-01-25T07:10:37.291Z,2.14
2019-01-25T07:13:19.220Z,2.23
2019-01-25T07:16:07.180Z,2.23
2019-01-25T07:18:53.720Z,2.25
2019-01-25T07:21:30.253Z,2.28
2019-01-25T07:24:04.063Z,2.29
2019-01-25T07:26:37.746Z,2.20
2019-01-25T07:29:11.900Z,2.32
2019-01-25T07:31:46.803Z,2.31
2019-01-25T07:34:20.353Z,2.35
2019-01-25T07:36:54.981Z,2.23
2019-01-25T07:39:30.386Z,2.29
2019-01-25T07:42:03.612Z,2.30
2019-01-25T07:44:37.145Z,2.37
2019-01-25T07:47:10.481Z,2.48
2019-01-25T07:49:44.717Z,2.45
2019-01-25T07:52:18.476Z,2.52
2019-01-25T07:54:52.459Z,2.63
2019-01-25T07:57:28.664Z,2.59
2019-01-25T08:00:02.386Z,2.66
2019-01-25T08:02:36.943Z,2.67
2019-01-25T08:05:10.796Z,2.70
2019-01-25T08:07:44.341Z,2.72
2019-01-25T08:10:19.078Z,2.82
2019-01-25T08:13:04.533Z,2.78
2019-01-25T08:15:49.169Z,2.84
2019-01-25T08:18:28.005Z,2.75
2019-01-25T08:21:05.380Z,2.72
2019-01-25T08:23:42.043Z,2.71
2019-01-25T08:26:16.068Z,2.62
2019-01-25T08:28:49.829Z,2.75
2019-01-25T08:31:23.509Z,2.77
2019-01-25T08:33:58.554Z,2.82
2019-01-25T08:36:33.562Z,2.82
2019-01-25T08:39:11.154Z,2.88
2019-01-25T08:41:45.197Z,2.73
2019-01-25T08:44:18.745Z,2.73
2019-01-25T08:46:53.155Z,2.74
2019-01-25T08:49:27.089Z,2.60
2019-01-25T08:52:01.259Z,2.68
2019-01-25T08:54:35.277Z,2.75
2019-01-25T08:57:09.474Z,2.84
2019-01-25T08:59:45.588Z,2.83
2019-01-25T09:02:21.061Z,2.83
2019-01-25T09:04:54.301Z,2.76
2019-01-25T09:07:27.075Z,2.66
2019-01-25T09:10:00.874Z,2.81
2019-01-25T09:12:46.790Z,2.81
2019-01-25T09:15:23.224Z,2.91
2019-01-25T09:17:56.863Z,2.79
2019-01-25T09:20:31.823Z,2.92
2019-01-25T09:23:05.893Z,2.84
2019-01-25T09:25:39.206Z,2.88
2019-01-25T09:28:12.897Z,2.82
2019-01-25T09:30:46.753Z,2.98
2019-01-25T09:33:21.202Z,2.90
2019-01-25T09:35:54.908Z,2.89
2019-01-25T09:38:28.717Z,2.90
2019-01-25T09:41:02.629Z,2.83
2019-01-25T09:43:36.341Z,2.84
2019-01-25T09:46:10.457Z,2.88
2019-01-25T09:48:44.043Z,2.98
2019-01-25T09:51:17.578Z,2.99
2019-01-25T09:53:52.420Z,3.14
2019-01-25T09:56:26.312Z,3.23
2019-01-25T09:59:00.295Z,3.25
2019-01-25T10:01:34.154Z,3.29
2019-01-25T10:04:09.217Z,3.21
2019-01-25T10:06:42.313Z,3.04
2019-01-25T10:09:14.891Z,3.03
2019-01-25T10:12:01.091Z,2.89
2019-01-25T10:14:46.047Z,2.85
2019-01-25T10:17:30.148Z,3.00
2019-01-25T10:20:15.998Z,3.00
2019-01-25T10:23:02.416Z,3.03
2019-01-25T10:25:48.518Z,3.15
2019-01-25T10:28:34.559Z,3.36
2019-01-25T10:31:12.208Z,3.48
2019-01-25T10:33:45.599Z,3.37
2019-01-25T10:36:18.029Z,3.43
2019-01-25T10:38:51.611Z,3.36
2019-01-25T10:41:26.237Z,3.23
2019-01-25T10:43:59.477Z,3.33
2019-01-25T10:46:31.882Z,3.42
2019-01-25T10:49:05.414Z,3.31
2019-01-25T10:51:39.498Z,3.32
2019-01-25T10:54:14.149Z,3.22
2019-01-25T10:56:48.021Z,3.15
2019-01-25T10:59:22.121Z,3.07
2019-01-25T11:01:56.448Z,3.07
2019-01-25T11:04:30.421Z,3.20
2019-01-25T11:07:04.343Z,3.18
2019-01-25T11:09:38.401Z,3.20
2019-01-25T11:12:22.313Z,3.18
2019-01-25T11:15:04.199Z,3.21
2019-01-25T11:17:38.043Z,3.34
2019-01-25T11:20:14.174Z,3.21
2019-01-25T11:22:47.563Z,3.39
2019-01-25T11:25:29.771Z,3.38
2019-01-25T11:28:04.345Z,3.35
2019-01-25T11:30:37.752Z,3.41
2019-01-25T11:33:10.525Z,3.39
2019-01-25T11:35:44.258Z,3.39
2019-01-25T11:38:17.622Z,3.40
2019-01-25T11:40:51.327Z,3.35
2019-01-25T11:43:24.825Z,3.38
2019-01-25T11:45:58.019Z,3.36
2019-01-25T11:48:31.108Z,3.37
2019-01-25T11:51:04.503Z,3.36
2019-01-25T11:53:38.457Z,3.36
2019-01-25T11:56:12.589Z,3.24
2019-01-25T11:58:47.319Z,3.26
2019-01-25T12:01:21.507Z,3.17
2019-01-25T12:03:55.305Z,3.03
2019-01-25T12:06:29.071Z,3.15
2019-01-25T12:09:03.445Z,3.17
2019-01-25T12:11:38.661Z,3.28
2019-01-25T12:14:12.383Z,3.29
2019-01-25T12:16:46.053Z,3.25
2019-01-25T12:19:19.923Z,3.05
2019-01-25T12:21:54.316Z,2.86
2019-01-25T12:24:28.025Z,2.82
2019-01-25T12:27:01.563Z,2.95
2019-01-25T12:29:35.103Z,2.88
2019-01-25T12:32:08.517Z,2.72
2019-01-25T12:34:42.299Z,2.85
2019-01-25T12:37:16.947Z,2.87
2019-01-25T12:39:50.538Z,2.82
2019-01-25T12:42:24.194Z,2.76
2019-01-25T12:44:57.121Z,2.69
2019-01-25T12:47:31.031Z,2.55
2019-01-25T12:50:05.145Z,2.48
2019-01-25T12:52:38.891Z,2.49
2019-01-25T12:55:12.452Z,2.50
2019-01-25T12:57:45.381Z,2.49
2019-01-25T13:00:25.305Z,2.48
2019-01-25T13:03:04.861Z,2.57
2019-01-25T13:05:38.887Z,2.53
2019-01-25T13:08:12.835Z,2.44
2019-01-25T13:10:46.714Z,2.42
2019-01-25T13:13:31.726Z,2.49
2019-01-25T13:16:08.679Z,2.31
2019-01-25T13:18:42.828Z,2.47
2019-01-25T13:21:16.422Z,2.52
2019-01-25T13:23:50.874Z,2.39
2019-01-25T13:26:24.775Z,2.49
2019-01-25T13:28:58.592Z,2.35
2019-01-25T13:31:36.179Z,2.30
2019-01-25T13:34:09.269Z,2.31
2019-01-25T13:36:43.366Z,2.25
2019-01-25T13:39:17.365Z,2.16
2019-01-25T13:41:51.919Z,2.36
2019-01-25T13:44:30.101Z,2.41
2019-01-25T13:47:00.975Z,2.27
2019-01-25T13:49:35.830Z,2.44
2019-01-25T13:52:09.670Z,2.45
2019-01-25T13:54:43.204Z,2.38
2019-01-25T13:57:17.053Z,2.28
2019-01-25T13:59:51.011Z,2.25
2019-01-25T14:02:24.581Z,2.14
2019-01-25T14:04:59.875Z,2.09
2019-01-25T14:07:33.503Z,1.99
2019-01-25T14:10:09.406Z,2.04
2019-01-25T14:12:44.933Z,2.12
2019-01-25T14:15:19.025Z,2.14
2019-01-25T14:17:53.218Z,2.18
2019-01-25T14:20:28.209Z,2.23
2019-01-25T14:23:01.827Z,2.03
2019-01-25T14:25:35.729Z,2.25
2019-01-25T14:28:09.938Z,2.39
2019-01-25T14:30:44.181Z,2.41
2019-01-25T14:33:17.975Z,2.28
2019-01-25T14:35:52.055Z,2.27
2019-01-25T14:38:26.873Z,2.29
2019-01-25T14:41:02.711Z,2.28
2019-01-25T14:43:37.353Z,2.30
2019-01-25T14:46:10.468Z,2.28
2019-01-25T14:48:43.929Z,2.24
2019-01-25T14:51:17.763Z,2.16
2019-01-25T14:53:53.931Z,2.13
2019-01-25T14:56:27.426Z,2.17
2019-01-25T14:59:01.085Z,2.12
2019-01-25T15:01:36.365Z,2.31
2019-01-25T15:04:10.935Z,2.27
2019-01-25T15:06:45.267Z,2.27
2019-01-25T15:09:21.048Z,2.46
2019-01-25T15:11:54.871Z,2.43
2019-01-25T15:14:28.450Z,2.56
2019-01-25T15:17:02.852Z,2.60
2019-01-25T15:19:36.606Z,2.69
2019-01-25T15:22:10.251Z,2.62
2019-01-25T15:24:44.773Z,2.68
2019-01-25T15:27:18.277Z,2.60
2019-01-25T15:29:52.097Z,2.53
2019-01-25T15:32:25.659Z,2.48
2019-01-25T15:35:01.366Z,2.43
2019-01-25T15:37:34.778Z,2.32
2019-01-25T15:40:09.997Z,2.36
2019-01-25T15:42:45.195Z,2.39
2019-01-25T15:45:19.057Z,2.42
2019-01-25T15:47:52.083Z,2.50
2019-01-25T15:50:25.434Z,2.47
2019-01-25T15:52:59.738Z,2.57
2019-01-25T15:55:33.358Z,2.57
2019-01-25T15:58:07.154Z,2.60
2019-01-25T16:00:41.979Z,2.63
2019-01-25T16:03:17.210Z,2.71
2019-01-25T16:05:51.440Z,2.72
2019-01-25T16:08:25.343Z,2.80
2019-01-25T16:10:59.000Z,2.68
2019-01-25T16:13:45.367Z,2.72
2019-01-25T16:16:29.373Z,2.55
2019-01-25T16:19:08.483Z,2.68
2019-01-25T16:21:42.505Z,2.67
2019-01-25T16:24:15.845Z,2.62
2019-01-25T16:26:49.219Z,2.61
2019-01-25T16:29:22.563Z,2.75
2019-01-25T16:31:56.465Z,2.82
2019-01-25T16:34:30.458Z,2.86
2019-01-25T16:37:04.127Z,2.94
2019-01-25T16:39:37.455Z,2.97
2019-01-25T16:42:10.608Z,3.08
2019-01-25T16:44:42.839Z,3.10
2019-01-25T16:47:16.626Z,3.16
2019-01-25T16:49:50.890Z,3.08
2019-01-25T16:52:24.853Z,3.06
2019-01-25T16:54:58.923Z,3.06
2019-01-25T16:57:32.446Z,3.17
2019-01-25T17:00:07.839Z,3.10
2019-01-25T17:02:41.381Z,3.11
2019-01-25T17:05:14.685Z,2.80
2019-01-25T17:07:49.886Z,2.72
2019-01-25T17:10:23.772Z,2.87
2019-01-25T17:13:03.543Z,2.93
2019-01-25T17:15:37.289Z,2.98
2019-01-25T17:18:10.691Z,2.94
2019-01-25T17:20:44.339Z,2.78
2019-01-25T17:23:18.560Z,2.61
2019-01-25T17:25:52.744Z,2.67
2019-01-25T17:28:27.007Z,2.51
2019-01-25T17:31:01.108Z,2.55
2019-01-25T17:33:34.669Z,2.51
2019-01-25T17:36:08.431Z,2.55
2019-01-25T17:38:42.124Z,2.46
2019-01-25T17:41:17.034Z,2.46
2019-01-25T17:43:50.909Z,2.50
2019-01-25T17:46:24.163Z,2.48
2019-01-25T17:48:58.184Z,2.50
2019-01-25T17:51:31.768Z,2.43
2019-01-25T17:54:05.278Z,2.54
2019-01-25T17:56:39.333Z,2.48
2019-01-25T17:59:13.106Z,2.49
2019-01-25T18:01:47.694Z,2.47
2019-01-25T18:04:25.481Z,2.49
2019-01-25T18:06:59.056Z,2.50
2019-01-25T18:09:33.064Z,2.49
2019-01-25T18:12:08.528Z,2.48
2019-01-25T18:14:51.725Z,2.48
2019-01-25T18:17:26.410Z,2.49
2019-01-25T18:19:59.816Z,2.59
2019-01-25T18:22:33.402Z,2.61
2019-01-25T18:25:07.470Z,2.66
2019-01-25T18:27:43.701Z,2.68
2019-01-25T18:30:29.380Z,2.63
2019-01-25T18:33:06.459Z,2.27
2019-01-25T18:35:40.164Z,2.28
2019-01-25T18:38:13.901Z,2.15
2019-01-25T18:40:49.410Z,1.91
2019-01-25T18:43:22.702Z,1.97
2019-01-25T18:45:56.498Z,1.87
2019-01-25T18:48:33.539Z,1.92
2019-01-25T18:51:07.528Z,1.89
2019-01-25T18:53:44.657Z,1.85
2019-01-25T18:56:19.466Z,1.87
2019-01-25T18:58:54.329Z,1.78
2019-01-25T19:01:28.830Z,1.91
2019-01-25T19:04:02.824Z,1.80
2019-01-25T19:06:36.897Z,1.79
2019-01-25T19:09:11.085Z,1.79
2019-01-25T19:11:44.984Z,1.87
2019-01-25T19:14:29.090Z,1.86
2019-01-25T19:17:07.058Z,1.83
2019-01-25T19:19:40.628Z,1.80
2019-01-25T19:22:14.151Z,1.61
2019-01-25T19:24:48.135Z,1.56
2019-01-25T19:27:21.929Z,1.52
2019-01-25T19:29:55.560Z,1.48
2019-01-25T19:32:29.183Z,1.46
2019-01-25T19:35:02.741Z,1.38
2019-01-25T19:37:37.321Z,1.17
2019-01-25T19:40:12.589Z,1.09
2019-01-25T19:42:46.026Z,1.03
2019-01-25T19:45:20.723Z,1.11
2019-01-25T19:47:55.300Z,0.98
2019-01-25T19:50:29.553Z,0.97
2019-01-25T19:53:03.391Z,1.00
2019-01-25T19:55:37.547Z,1.05
2019-01-25T19:58:13.100Z,1.15
2019-01-25T20:00:47.042Z,1.19
2019-01-25T20:03:20.681Z,1.30
2019-01-25T20:05:55.463Z,1.34
2019-01-25T20:08:30.294Z,1.32
2019-01-25T20:11:04.579Z,1.27
2019-01-25T20:13:38.805Z,1.41
2019-01-25T20:16:24.829Z,1.47
2019-01-25T20:19:07.069Z,1.54
2019-01-25T20:21:47.007Z,1.53
2019-01-25T20:24:20.489Z,1.42
2019-01-25T20:26:54.287Z,1.40
2019-01-25T20:29:29.357Z,1.46
2019-01-25T20:32:02.851Z,1.51
2019-01-25T20:34:36.816Z,1.36
2019-01-25T20:37:10.318Z,1.42
2019-01-25T20:39:44.873Z,1.35
2019-01-25T20:42:18.988Z,1.16
2019-01-25T20:44:52.620Z,1.21
2019-01-25T20:47:26.073Z,1.14
2019-01-25T20:50:00.224Z,1.05
2019-01-25T20:52:33.545Z,1.07
2019-01-25T20:55:08.241Z,0.97
2019-01-25T20:57:44.057Z,0.93
2019-01-25T21:00:18.523Z,0.98
2019-01-25T21:02:54.922Z,0.83
2019-01-25T21:05:28.746Z,0.91
2019-01-25T21:08:02.196Z,0.81
2019-01-25T21:10:36.508Z,0.83
2019-01-25T21:13:11.556Z,0.81
2019-01-25T21:15:54.897Z,0.68
2019-01-25T21:18:39.510Z,0.61
2019-01-25T21:21:25.240Z,0.30
2019-01-25T21:24:06.552Z,-0.01
2019-01-25T21:26:39.899Z,-0.18
2019-01-25T21:29:13.724Z,-0.21
2019-01-25T21:31:47.282Z,-0.26
2019-01-25T21:34:20.769Z,-0.37
2019-01-25T21:36:54.542Z,-0.46
2019-01-25T21:39:28.591Z,-0.59
2019-01-25T21:42:02.643Z,-0.70
2019-01-25T21:44:36.787Z,-0.75
2019-01-25T21:47:09.848Z,-0.86
2019-01-25T21:49:42.113Z,-0.82
2019-01-25T21:52:15.992Z,-0.93
2019-01-25T21:54:49.685Z,-0.87
2019-01-25T22:15:20.012Z,-0.22
2019-01-25T22:18:04.187Z,-0.27
2019-01-25T22:20:37.113Z,-0.42
2019-01-25T22:23:21.147Z,-0.76
2019-01-25T22:26:08.032Z,-0.84
2019-01-25T22:28:41.683Z,-0.94
2019-01-25T22:31:15.146Z,-1.02
2019-01-25T22:33:48.722Z,-1.10
2019-01-25T22:36:22.558Z,-1.17
2019-01-25T22:38:56.063Z,-1.20
2019-01-25T22:41:29.920Z,-1.27
2019-01-25T22:44:03.775Z,-1.15
2019-01-25T22:46:36.994Z,-1.24
2019-01-25T22:49:10.480Z,-1.37
2019-01-25T22:51:43.571Z,-1.26
2019-01-25T22:54:16.132Z,-1.25
2019-01-25T22:56:49.455Z,-1.31
2019-01-25T22:59:23.459Z,-1.41
2019-01-25T23:01:56.666Z,-1.47
2019-01-25T23:05:20.299Z,-1.50
2019-01-25T23:07:53.332Z,-1.50
2019-01-25T23:10:25.092Z,-1.46
2019-01-25T23:12:58.319Z,-1.47
2019-01-25T23:15:41.034Z,-1.64
2019-01-25T23:18:14.238Z,-1.57
2019-01-25T23:20:59.659Z,-1.70
2019-01-25T23:23:45.374Z,-1.62
2019-01-25T23:26:28.315Z,-1.61
2019-01-25T23:29:01.403Z,-1.68
2019-01-25T23:31:34.378Z,-1.57
2019-01-25T23:34:07.585Z,-1.59
2019-01-25T23:36:40.320Z,-1.66
2019-01-25T23:39:13.687Z,-1.71
2019-01-25T23:41:46.713Z,-1.70
2019-01-25T23:44:18.848Z,-1.74
2019-01-25T23:46:51.877Z,-1.73
2019-01-25T23:49:25.041Z,-1.78
2019-01-25T23:51:58.627Z,-1.82
2019-01-25T23:54:31.826Z,-1.79
2019-01-25T23:57:05.281Z,-1.80
2019-01-25T23:59:38.229Z,-1.79
